createdAt,value
2017-12-11T00:02:05.610Z,19.90
2017-12-11T00:04:33.453Z,15.57
2017-12-11T00:07:08.133Z,16.67
2017-12-11T00:09:35.956Z,17.15
2017-12-11T00:12:03.801Z,17.85
2017-12-11T00:14:31.615Z,22.35
2017-12-11T00:16:59.440Z,20.20
2017-12-11T00:19:27.288Z,19.70
2017-12-11T00:21:55.132Z,18.73
2017-12-11T00:24:22.977Z,21.00
2017-12-11T00:26:50.808Z,15.52
2017-12-11T00:29:18.668Z,15.88
2017-12-11T00:31:46.516Z,23.45
2017-12-11T00:34:14.388Z,17.48
2017-12-11T00:36:42.279Z,18.75
2017-12-11T00:39:10.172Z,18.40
2017-12-11T00:41:38.005Z,19.30
2017-12-11T00:44:05.832Z,18.25
2017-12-11T00:46:33.681Z,18.52
2017-12-11T00:49:01.516Z,20.80
2017-12-11T00:51:29.407Z,15.27
2017-12-11T00:53:57.246Z,17.45
2017-12-11T00:56:25.136Z,16.87
2017-12-11T00:58:52.982Z,21.12
2017-12-11T01:01:20.826Z,17.62
2017-12-11T01:03:48.711Z,18.52
2017-12-11T01:06:16.548Z,17.92
2017-12-11T01:08:44.369Z,16.87
2017-12-11T01:11:12.205Z,17.50
2017-12-11T01:13:40.052Z,18.75
2017-12-11T01:16:07.901Z,17.95
2017-12-11T01:18:35.721Z,18.52
2017-12-11T01:21:03.565Z,21.73
2017-12-11T01:23:31.433Z,18.95
2017-12-11T01:25:59.250Z,22.42
2017-12-11T01:28:27.084Z,19.52
2017-12-11T01:30:54.909Z,22.67
2017-12-11T01:33:22.817Z,20.12
2017-12-11T01:35:50.676Z,22.20
2017-12-11T01:38:18.551Z,20.35
2017-12-11T01:40:46.393Z,17.87
2017-12-11T01:43:14.286Z,16.25
2017-12-11T01:45:42.145Z,20.95
2017-12-11T01:48:09.997Z,22.83
2017-12-11T01:50:37.832Z,21.20
2017-12-11T01:53:05.676Z,25.42
2017-12-11T01:55:33.514Z,22.13
2017-12-11T01:58:01.356Z,25.55
2017-12-11T02:00:29.197Z,22.13
2017-12-11T02:02:57.028Z,23.70
2017-12-11T02:05:25.484Z,29.55
2017-12-11T02:07:59.463Z,22.13
2017-12-11T02:10:27.325Z,25.73
2017-12-11T02:12:55.168Z,21.08
2017-12-11T02:15:23.656Z,23.52
2017-12-11T02:17:51.529Z,25.17
2017-12-11T02:20:19.395Z,24.98
2017-12-11T02:22:47.261Z,28.08
2017-12-11T02:25:15.092Z,25.45
2017-12-11T02:27:42.932Z,25.48
2017-12-11T02:30:10.808Z,24.45
2017-12-11T02:32:38.678Z,31.50
2017-12-11T02:35:06.504Z,25.42
2017-12-11T02:37:34.351Z,24.63
2017-12-11T02:40:02.213Z,26.05
2017-12-11T02:42:30.042Z,24.35
2017-12-11T02:44:57.900Z,27.85
2017-12-11T02:47:25.737Z,25.37
2017-12-11T02:49:53.578Z,27.33
2017-12-11T02:52:21.400Z,25.75
2017-12-11T02:54:49.230Z,28.40
2017-12-11T02:57:20.664Z,34.53
2017-12-11T02:59:48.496Z,24.40
2017-12-11T03:02:16.341Z,29.37
2017-12-11T03:04:44.191Z,34.17
2017-12-11T03:07:12.042Z,26.37
2017-12-11T03:09:39.867Z,30.60
2017-12-11T03:12:07.716Z,26.95
2017-12-11T03:14:35.536Z,25.23
2017-12-11T03:17:16.747Z,31.50
2017-12-11T03:19:44.592Z,26.00
2017-12-11T03:22:12.436Z,26.95
2017-12-11T03:24:40.277Z,34.85
2017-12-11T03:27:08.108Z,30.10
2017-12-11T03:29:35.953Z,28.55
2017-12-11T03:32:03.780Z,30.25
2017-12-11T03:34:31.627Z,27.87
2017-12-11T03:36:59.467Z,27.55
2017-12-11T03:39:27.319Z,31.40
2017-12-11T03:41:55.143Z,31.87
2017-12-11T03:44:23.024Z,36.05
2017-12-11T03:46:50.884Z,32.13
2017-12-11T03:49:18.716Z,34.97
2017-12-11T03:51:46.571Z,34.70
2017-12-11T03:54:14.391Z,30.65
2017-12-11T03:56:42.243Z,37.47
2017-12-11T03:59:10.068Z,31.15
2017-12-11T04:01:37.909Z,32.33
2017-12-11T04:04:05.780Z,30.98
2017-12-11T04:09:34.925Z,30.27
2017-12-11T04:12:02.764Z,35.15
2017-12-11T04:14:30.625Z,31.73
2017-12-11T04:16:58.444Z,33.95
2017-12-11T04:19:26.269Z,37.50
2017-12-11T04:21:54.180Z,33.58
2017-12-11T04:24:22.040Z,37.88
2017-12-11T04:26:49.848Z,42.42
2017-12-11T04:29:17.693Z,37.55
2017-12-11T04:31:45.536Z,39.65
2017-12-11T04:34:13.424Z,34.20
2017-12-11T04:36:41.269Z,35.72
2017-12-11T04:39:09.114Z,40.65
2017-12-11T04:41:36.939Z,36.38
2017-12-11T04:44:04.805Z,39.67
2017-12-11T04:46:49.608Z,38.08
2017-12-11T04:52:09.276Z,38.10
2017-12-11T04:54:37.144Z,41.08
2017-12-11T04:57:11.722Z,39.60
2017-12-11T04:59:39.576Z,39.88
2017-12-11T05:02:07.402Z,41.83
2017-12-11T05:04:35.270Z,45.88
2017-12-11T05:10:04.202Z,41.67
2017-12-11T05:12:32.052Z,44.42
2017-12-11T05:14:59.922Z,39.40
2017-12-11T05:17:27.772Z,39.08
2017-12-11T05:19:55.625Z,44.47
2017-12-11T05:22:23.472Z,47.72
2017-12-11T05:24:51.357Z,40.75
2017-12-11T05:27:19.219Z,51.67
2017-12-11T05:29:47.065Z,48.87
2017-12-11T05:32:14.950Z,46.58
2017-12-11T05:34:42.778Z,51.70
2017-12-11T05:37:10.623Z,46.70
2017-12-11T05:39:38.468Z,46.55
2017-12-11T05:42:06.312Z,46.08
2017-12-11T05:44:34.141Z,45.28
2017-12-11T05:47:02.009Z,49.88
2017-12-11T05:49:29.878Z,39.90
2017-12-11T05:51:57.735Z,45.70
2017-12-11T05:54:25.572Z,50.10
2017-12-11T05:56:59.993Z,47.20
2017-12-11T05:59:27.824Z,48.30
2017-12-11T06:01:55.672Z,48.97
2017-12-11T06:04:23.540Z,48.00
2017-12-11T06:06:51.405Z,40.15
2017-12-11T06:09:19.236Z,46.28
2017-12-11T06:11:47.101Z,48.30
2017-12-11T06:14:14.936Z,38.20
2017-12-11T06:19:47.220Z,45.83
2017-12-11T06:22:15.278Z,50.17
2017-12-11T06:24:47.308Z,42.65
2017-12-11T06:30:19.844Z,47.60
2017-12-11T06:32:47.684Z,55.42
2017-12-11T06:35:15.547Z,48.05
2017-12-11T06:40:44.545Z,52.13
2017-12-11T06:43:12.386Z,48.80
2017-12-11T06:45:40.231Z,47.58
2017-12-11T06:48:14.844Z,49.05
2017-12-11T06:50:42.703Z,48.35
2017-12-11T06:53:10.582Z,51.47
2017-12-11T06:55:38.440Z,48.90
2017-12-11T06:58:06.287Z,49.15
2017-12-11T07:00:34.138Z,48.92
2017-12-11T07:03:02.032Z,50.95
2017-12-11T07:05:29.872Z,50.50
2017-12-11T07:07:57.727Z,49.20
2017-12-11T07:10:25.581Z,49.45
2017-12-11T07:12:53.415Z,56.50
2017-12-11T07:15:21.265Z,47.47
2017-12-11T07:17:49.153Z,59.08
2017-12-11T07:20:17.043Z,48.15
2017-12-11T07:22:44.869Z,49.00
2017-12-11T07:25:12.733Z,43.92
2017-12-11T07:27:40.791Z,50.75
2017-12-11T07:30:08.672Z,55.00
2017-12-11T07:32:36.504Z,50.38
2017-12-11T07:35:04.341Z,48.65
2017-12-11T07:37:32.157Z,48.50
2017-12-11T07:39:59.984Z,49.67
2017-12-11T07:42:27.837Z,51.42
2017-12-11T07:44:55.673Z,56.20
2017-12-11T07:47:23.933Z,58.17
2017-12-11T07:49:51.850Z,58.70
2017-12-11T07:52:19.684Z,55.85
2017-12-11T07:54:47.545Z,50.88
2017-12-11T07:57:15.400Z,51.10
2017-12-11T07:59:43.244Z,61.50
2017-12-11T08:02:11.113Z,48.95
2017-12-11T08:04:38.940Z,55.12
2017-12-11T08:07:06.801Z,60.35
2017-12-11T08:09:34.652Z,41.92
2017-12-11T08:12:02.541Z,53.38
2017-12-11T08:14:30.372Z,50.47
2017-12-11T08:16:58.241Z,60.67
2017-12-11T08:19:26.102Z,51.70
2017-12-11T08:21:54.025Z,55.75
2017-12-11T08:24:21.878Z,50.67
2017-12-11T08:26:49.752Z,53.70
2017-12-11T08:29:17.617Z,51.55
2017-12-11T08:31:45.460Z,50.72
2017-12-11T08:34:13.355Z,59.05
2017-12-11T08:36:47.341Z,53.80
2017-12-11T08:39:15.230Z,55.25
2017-12-11T08:41:43.074Z,48.90
2017-12-11T08:44:10.937Z,55.22
2017-12-11T08:46:38.805Z,48.75
2017-12-11T08:49:06.609Z,51.15
2017-12-11T08:51:34.458Z,47.58
2017-12-11T08:54:02.339Z,53.17
2017-12-11T08:56:43.744Z,51.28
2017-12-11T08:59:11.569Z,54.08
2017-12-11T09:01:39.421Z,55.63
2017-12-11T09:04:07.283Z,47.38
2017-12-11T09:06:48.589Z,44.85
2017-12-11T09:09:16.432Z,48.65
2017-12-11T09:11:44.301Z,42.30
2017-12-11T09:14:12.166Z,46.55
2017-12-11T09:16:40.061Z,55.85
2017-12-11T09:19:07.905Z,50.22
2017-12-11T09:21:35.761Z,52.62
2017-12-11T09:24:03.649Z,52.20
2017-12-11T09:26:31.505Z,50.33
2017-12-11T09:28:59.397Z,57.50
2017-12-11T09:31:27.216Z,55.97
2017-12-11T09:33:55.073Z,51.45
2017-12-11T09:36:22.888Z,50.80
2017-12-11T09:38:50.726Z,54.85
2017-12-11T09:41:18.537Z,56.80
2017-12-11T09:43:46.366Z,57.53
2017-12-11T09:46:14.202Z,51.28
2017-12-11T09:51:42.429Z,52.40
2017-12-11T09:54:11.155Z,53.80
2017-12-11T09:56:45.197Z,62.20
2017-12-11T09:59:13.063Z,57.75
2017-12-11T10:01:40.906Z,57.45
2017-12-11T10:04:08.756Z,58.33
2017-12-11T10:06:43.466Z,53.35
2017-12-11T10:09:11.369Z,56.70
2017-12-11T10:11:39.255Z,58.00
2017-12-11T10:14:07.117Z,57.78
2017-12-11T10:16:34.985Z,49.03
2017-12-11T10:19:02.854Z,53.25
2017-12-11T10:21:30.709Z,55.47
2017-12-11T10:23:58.605Z,56.85
2017-12-11T10:26:26.449Z,53.42
2017-12-11T10:28:54.316Z,58.58
2017-12-11T10:31:22.185Z,59.40
2017-12-11T10:33:50.021Z,54.90
2017-12-11T10:36:17.860Z,58.08
2017-12-11T10:38:45.701Z,56.37
2017-12-11T10:41:13.570Z,53.50
2017-12-11T10:43:41.428Z,51.33
2017-12-11T10:46:09.305Z,52.47
2017-12-11T10:48:44.897Z,59.45
2017-12-11T10:51:13.097Z,62.88
2017-12-11T10:53:40.964Z,49.25
2017-12-11T10:56:08.858Z,53.50
2017-12-11T10:58:36.721Z,52.15
2017-12-11T11:01:04.596Z,55.17
2017-12-11T11:03:32.466Z,50.50
2017-12-11T11:06:00.315Z,53.65
2017-12-11T11:08:28.156Z,61.25
2017-12-11T11:10:56.051Z,66.57
2017-12-11T11:13:23.908Z,64.05
2017-12-11T11:15:51.777Z,58.87
2017-12-11T11:21:11.307Z,63.63
2017-12-11T11:23:39.146Z,55.28
2017-12-11T11:26:06.988Z,57.20
2017-12-11T11:28:34.841Z,62.42
2017-12-11T11:31:02.704Z,61.58
2017-12-11T11:33:30.568Z,58.30
2017-12-11T11:35:58.420Z,60.55
2017-12-11T11:38:31.532Z,71.22
2017-12-11T11:40:59.367Z,71.87
2017-12-11T11:43:27.205Z,64.22
2017-12-11T11:45:55.065Z,66.00
2017-12-11T11:48:29.652Z,65.50
2017-12-11T11:50:57.477Z,68.80
2017-12-11T11:53:25.327Z,65.55
2017-12-11T11:55:53.140Z,62.97
2017-12-11T11:58:21.017Z,59.70
2017-12-11T12:00:48.888Z,60.12
2017-12-11T12:03:16.757Z,62.85
2017-12-11T12:05:44.572Z,58.47
2017-12-11T12:08:12.420Z,59.40
2017-12-11T12:10:40.277Z,57.03
2017-12-11T12:13:08.127Z,64.72
2017-12-11T12:15:35.973Z,59.38
2017-12-11T12:18:10.840Z,57.90
2017-12-11T12:20:38.720Z,60.70
2017-12-11T12:23:06.561Z,62.55
2017-12-11T12:25:34.417Z,64.93
2017-12-11T12:28:02.286Z,64.55
2017-12-11T12:30:30.173Z,67.07
2017-12-11T12:32:58.037Z,58.40
2017-12-11T12:35:25.897Z,73.40
2017-12-11T12:37:53.765Z,64.43
2017-12-11T12:40:21.632Z,59.40
2017-12-11T12:42:49.497Z,68.35
2017-12-11T12:45:17.365Z,67.45
2017-12-11T12:47:45.233Z,68.65
2017-12-11T12:50:13.056Z,63.40
2017-12-11T12:52:40.924Z,73.53
2017-12-11T12:55:08.805Z,86.60
2017-12-11T12:57:36.651Z,71.12
2017-12-11T13:00:04.503Z,70.05
2017-12-11T13:02:32.338Z,66.43
2017-12-11T13:05:00.195Z,66.00
2017-12-11T13:07:28.040Z,66.50
2017-12-11T13:09:55.879Z,67.95
2017-12-11T13:12:23.695Z,66.15
2017-12-11T13:14:51.556Z,66.03
2017-12-11T13:17:19.433Z,64.00
2017-12-11T13:19:47.285Z,67.20
2017-12-11T13:22:15.172Z,66.35
2017-12-11T13:24:43.039Z,65.68
2017-12-11T13:27:17.141Z,71.82
2017-12-11T13:29:44.993Z,73.03
2017-12-11T13:32:12.861Z,67.00
2017-12-11T13:34:40.752Z,64.93
2017-12-11T13:37:08.646Z,70.82
2017-12-11T13:39:36.484Z,62.50
2017-12-11T13:42:04.352Z,63.38
2017-12-11T13:44:32.196Z,69.57
2017-12-11T13:47:06.957Z,77.80
2017-12-11T13:49:34.812Z,77.37
2017-12-11T13:52:02.686Z,79.47
2017-12-11T13:54:30.520Z,79.85
2017-12-11T13:59:46.707Z,71.30
2017-12-11T14:02:14.557Z,79.82
2017-12-11T14:04:42.412Z,86.55
2017-12-11T14:07:10.228Z,76.40
2017-12-11T14:09:38.053Z,74.90
2017-12-11T14:12:05.904Z,77.57
2017-12-11T14:14:33.772Z,68.37
2017-12-11T14:17:01.604Z,68.65
2017-12-11T14:19:29.464Z,67.18
2017-12-11T14:21:57.321Z,63.87
2017-12-11T14:24:25.145Z,78.43
2017-12-11T14:26:53.013Z,73.03
2017-12-11T14:29:20.918Z,75.45
2017-12-11T14:31:48.753Z,73.20
2017-12-11T14:34:16.601Z,70.85
2017-12-11T14:36:44.538Z,65.78
2017-12-11T14:39:12.384Z,70.40
2017-12-11T14:41:40.273Z,81.57
2017-12-11T14:44:08.145Z,75.47
2017-12-11T14:46:49.575Z,70.22
2017-12-11T14:49:17.416Z,84.70
2017-12-11T14:54:39.112Z,73.87
2017-12-11T14:57:06.976Z,68.15
2017-12-11T14:59:34.812Z,65.47
2017-12-11T15:02:02.715Z,77.28
2017-12-11T15:04:30.613Z,71.20
2017-12-11T15:07:05.037Z,75.62
2017-12-11T15:09:32.882Z,69.47
2017-12-11T15:12:00.734Z,77.47
2017-12-11T15:14:28.679Z,63.97
2017-12-11T15:20:02.671Z,75.35
2017-12-11T15:22:30.606Z,76.97
2017-12-11T15:24:58.558Z,82.37
2017-12-11T15:27:33.290Z,71.82
2017-12-11T15:30:01.157Z,80.07
2017-12-11T15:32:28.998Z,81.68
2017-12-11T15:34:56.864Z,72.82
2017-12-11T15:37:24.726Z,74.45
2017-12-11T15:39:52.581Z,79.62
2017-12-11T15:42:20.436Z,78.97
2017-12-11T15:44:48.313Z,86.78
2017-12-11T15:47:16.257Z,71.57
2017-12-11T15:49:44.114Z,84.10
2017-12-11T15:52:12.029Z,98.55
2017-12-11T15:54:39.872Z,81.82
2017-12-11T15:57:16.132Z,80.30
2017-12-11T15:59:45.109Z,80.57
2017-12-11T16:02:13.396Z,79.95
2017-12-11T16:04:41.536Z,70.20
2017-12-11T16:07:12.981Z,80.32
2017-12-11T16:09:40.842Z,87.60
2017-12-11T16:12:08.689Z,85.38
2017-12-11T16:14:36.556Z,86.05
2017-12-11T16:17:04.391Z,85.55
2017-12-11T16:19:32.244Z,93.25
2017-12-11T16:22:00.108Z,88.62
2017-12-11T16:24:27.921Z,98.20
2017-12-11T16:26:55.806Z,85.93
2017-12-11T16:29:23.662Z,87.78
2017-12-11T16:31:51.510Z,91.00
2017-12-11T16:34:19.325Z,94.35
2017-12-11T16:39:39.100Z,76.95
2017-12-11T16:42:06.949Z,75.82
2017-12-11T16:44:34.777Z,84.80
2017-12-11T16:47:11.242Z,85.87
2017-12-11T16:49:39.129Z,78.80
2017-12-11T16:52:07.159Z,68.75
2017-12-11T16:54:35.021Z,84.82
2017-12-11T16:57:02.888Z,82.32
2017-12-11T16:59:30.749Z,79.55
2017-12-11T17:01:58.657Z,81.12
2017-12-11T17:04:26.493Z,73.50
2017-12-11T17:06:54.335Z,80.12
2017-12-11T17:09:22.178Z,82.55
2017-12-11T17:11:50.038Z,67.10
2017-12-11T17:14:17.863Z,70.32
2017-12-11T17:22:44.754Z,62.47
2017-12-11T17:25:12.613Z,69.47
2017-12-11T17:30:41.325Z,64.82
2017-12-11T17:33:09.190Z,67.75
2017-12-11T17:35:37.001Z,62.10
2017-12-11T17:38:04.837Z,58.60
2017-12-11T17:40:32.691Z,56.13
2017-12-11T17:43:00.572Z,58.22
2017-12-11T17:45:28.433Z,55.95
2017-12-11T17:47:56.333Z,57.08
2017-12-11T17:50:24.164Z,53.42
2017-12-11T17:52:52.030Z,59.58
2017-12-11T17:55:19.897Z,59.83
2017-12-11T17:57:51.703Z,53.58
2017-12-11T18:00:19.592Z,59.05
2017-12-11T18:05:41.961Z,52.08
2017-12-11T18:08:24.403Z,58.03
2017-12-11T18:10:52.294Z,63.05
2017-12-11T18:13:20.165Z,50.95
2017-12-11T18:15:48.122Z,52.72
2017-12-11T18:21:16.509Z,60.33
2017-12-11T18:23:44.390Z,50.70
2017-12-11T18:26:12.495Z,57.33
2017-12-11T18:28:41.436Z,53.63
2017-12-11T18:31:09.281Z,61.55
2017-12-11T18:33:37.154Z,50.22
2017-12-11T18:36:05.036Z,53.90
2017-12-11T18:38:32.885Z,50.22
2017-12-11T18:41:00.715Z,50.88
2017-12-11T18:43:28.670Z,49.25
2017-12-11T18:45:56.590Z,50.63
2017-12-11T18:51:15.131Z,52.35
2017-12-11T18:53:43.197Z,54.33
2017-12-11T18:56:11.201Z,53.58
2017-12-11T18:58:39.096Z,60.72
2017-12-11T19:01:06.953Z,49.95
2017-12-11T19:03:34.875Z,55.08
2017-12-11T19:06:02.765Z,52.85
2017-12-11T19:08:30.705Z,51.88
2017-12-11T19:10:58.569Z,47.80
2017-12-11T19:13:31.469Z,53.03
2017-12-11T19:15:59.367Z,57.38
2017-12-11T19:18:27.228Z,54.40
2017-12-11T19:20:55.105Z,60.50
2017-12-11T19:23:23.011Z,52.60
2017-12-11T19:25:50.897Z,55.28
2017-12-11T19:28:25.411Z,52.53
2017-12-11T19:30:53.300Z,48.40
2017-12-11T19:33:21.253Z,58.47
2017-12-11T19:35:49.137Z,58.63
2017-12-11T19:38:17.020Z,59.13
2017-12-11T19:40:44.930Z,55.70
2017-12-11T19:43:13.154Z,60.25
2017-12-11T19:45:41.153Z,68.03
2017-12-11T19:48:15.343Z,53.85
2017-12-11T19:50:43.192Z,55.03
2017-12-11T19:53:11.048Z,66.07
2017-12-11T19:55:38.924Z,52.45
2017-12-11T19:58:06.804Z,56.00
2017-12-11T20:00:34.661Z,54.55
2017-12-11T20:03:02.612Z,58.53
2017-12-11T20:05:30.486Z,60.75
2017-12-11T20:07:58.358Z,59.85
2017-12-11T20:10:26.262Z,49.88
2017-12-11T20:12:54.130Z,54.75
2017-12-11T20:15:22.032Z,59.97
2017-12-11T20:17:56.551Z,60.33
2017-12-11T20:20:24.390Z,58.17
2017-12-11T20:22:52.282Z,64.05
2017-12-11T20:25:20.135Z,66.95
2017-12-11T20:27:48.186Z,59.33
2017-12-11T20:30:16.120Z,60.25
2017-12-11T20:32:43.996Z,72.55
2017-12-11T20:35:11.844Z,53.47
2017-12-11T20:37:39.718Z,64.12
2017-12-11T20:40:07.586Z,64.95
2017-12-11T20:42:35.414Z,55.20
2017-12-11T20:45:03.248Z,53.30
2017-12-11T20:47:31.121Z,57.25
2017-12-11T20:49:58.920Z,60.80
2017-12-11T20:52:26.787Z,57.75
2017-12-11T20:54:54.705Z,53.53
2017-12-11T20:57:22.593Z,57.45
2017-12-11T20:59:50.493Z,55.72
2017-12-11T21:02:18.355Z,61.78
2017-12-11T21:07:39.560Z,58.45
2017-12-11T21:10:07.480Z,58.72
2017-12-11T21:12:35.378Z,56.53
2017-12-11T21:15:03.457Z,60.70
2017-12-11T21:17:31.327Z,60.33
2017-12-11T21:19:59.251Z,50.60
2017-12-11T21:22:27.140Z,55.55
2017-12-11T21:24:55.084Z,60.20
2017-12-11T21:27:30.126Z,52.33
2017-12-11T21:29:58.034Z,68.15
2017-12-11T21:32:25.887Z,61.67
2017-12-11T21:34:53.814Z,54.22
2017-12-11T21:37:21.716Z,51.95
2017-12-11T21:39:49.626Z,54.60
2017-12-11T21:42:17.516Z,62.25
2017-12-11T21:44:45.426Z,53.13
2017-12-11T21:47:13.252Z,58.17
2017-12-11T21:49:41.093Z,50.83
2017-12-11T21:52:08.908Z,51.63
2017-12-11T21:54:36.773Z,61.05
2017-12-11T21:57:04.617Z,49.17
2017-12-11T21:59:32.468Z,51.85
2017-12-11T22:02:00.295Z,56.58
2017-12-11T22:04:28.737Z,54.17
2017-12-11T22:06:56.564Z,50.75
2017-12-11T22:09:24.395Z,48.40
2017-12-11T22:11:52.244Z,58.70
2017-12-11T22:14:20.073Z,57.38
2017-12-11T22:16:48.024Z,58.78
2017-12-11T22:19:15.864Z,60.70
2017-12-11T22:21:43.733Z,56.08
2017-12-11T22:24:11.597Z,56.25
2017-12-11T22:26:39.464Z,59.50
2017-12-11T22:29:07.309Z,49.15
2017-12-11T22:31:35.179Z,52.85
2017-12-11T22:34:03.040Z,57.72
2017-12-11T22:36:30.875Z,51.28
2017-12-11T22:38:58.717Z,54.88
2017-12-11T22:41:26.559Z,49.38
2017-12-11T22:43:54.429Z,54.40
2017-12-11T22:46:22.323Z,52.35
2017-12-11T22:48:50.181Z,54.58
2017-12-11T22:51:18.071Z,57.50
2017-12-11T22:53:45.981Z,49.47
2017-12-11T22:56:13.913Z,49.80
2017-12-11T22:58:47.969Z,49.58
2017-12-11T23:01:16.616Z,53.55
2017-12-11T23:03:44.460Z,59.80
2017-12-11T23:06:12.355Z,55.88
2017-12-11T23:08:40.201Z,52.55
2017-12-11T23:11:08.097Z,53.45
2017-12-11T23:13:35.987Z,56.30
2017-12-11T23:16:03.880Z,52.50
2017-12-11T23:18:38.037Z,45.67
2017-12-11T23:21:05.856Z,48.03
2017-12-11T23:23:33.716Z,51.45
2017-12-11T23:26:01.579Z,51.28
2017-12-11T23:28:29.467Z,51.97
2017-12-11T23:30:57.342Z,51.05
2017-12-11T23:33:25.188Z,46.33
2017-12-11T23:35:53.001Z,52.88
2017-12-11T23:38:20.864Z,56.90
2017-12-11T23:40:48.741Z,58.38
2017-12-11T23:43:16.592Z,56.42
2017-12-11T23:45:44.424Z,57.90
2017-12-11T23:51:16.917Z,53.95
2017-12-11T23:53:44.792Z,59.60
2017-12-11T23:56:12.701Z,55.00
